الصفحة الرئيسية
METAR-TAF:

METAR-TAF

مطار :

Antofagasta, تشيلي

دائرة عرض: 23-26S, خط طول: 070-26W, ارتفاع: 135 متر

مراقبة الطقس الحالي

تاريخ ووقت الإصدار 1ساعة و 7 دقيقة قبل الساعة 12:00UTC
ريح 4 عقدة من الجنوب
درجة الحرارة 16°درجة مئوية
الرطوبة 77%
ضغط 1014 hPa
الرؤية 10 كم أو أكثر
ملبد بالغيوم على ارتفاع 1200 قدم

METAR: SCFA 231200Z 18004KT 9999 OVC012 16/12 Q1014 NOSIG

زمن: 10:07 (13:07 UTC)

توقعات

تاريخ ووقت الإصدار 2ساعات و 17 دقيقة قبل الساعة 10:50UTC
التوقعات صالحة من23 الساعة 12 UTC إلى 24 الساعة 12 UTC
ريح 4 عقدة من الجنوب
الرؤية 10 كم أو أكثر
ملبد بالغيوم على ارتفاع 1200 قدم
أصبح
من 23 الساعة 15 UTC إلى 23 الساعة 17 UTC
ريح 12 عقدة من الجنوب الغربي
غيوم قليلة على ارتفاع 1500 قدم
أصبح
من 23 الساعة 22 UTC إلى 24 الساعة 00 UTC
غيوم مفككة على ارتفاع 1200 قدم
أصبح
من 24 الساعة 01 UTC إلى 24 الساعة 03 UTC
ريح 4 عقدة من الجنوب

TAF: SCFA 231050Z 2312/2412 18004KT 9999 OVC012 TX19/2318Z TN15/2406Z BECMG 2315/2317 22012KT FEW015 BECMG 2322/2400 BKN012 BECMG 2401/2403 19004KT

أرصاد الطقس والتوقعات من أكثر من 4000 مطار (تقارير الطقس للمطار METAR والتنبؤ بالطقس بالمطارTAF).

المحطات المتاحة هي النقط الصفراء والحمراء على الخريطة.

حرك المؤشر فوق النقطة لمعرفة اسم المحطة.

ثم انقر لمعرفة أرصاد وتوقعات الطقس.

لتغيير الخارطة: اضغط على الأزرار الخضراء مع رمز الصليب الأسود للتكبير. على الزر الأخضر مع شرطة للتصغير، أو على الأسهم الخضراء للخرائط المجاورة.


METAR-TAF: